sensor_id;sensor_type;location;lat;lon;timestamp;P1;durP1;ratioP1;P2;durP2;ratioP2
69240;SDS011;56352;55.750;13.198;2023-04-30T00:00:42;6.72;;;2.00;;
69240;SDS011;56352;55.750;13.198;2023-04-30T00:03:09;7.88;;;2.28;;
69240;SDS011;56352;55.750;13.198;2023-04-30T00:05:35;8.20;;;2.17;;
69240;SDS011;56352;55.750;13.198;2023-04-30T00:08:03;9.02;;;2.42;;
69240;SDS011;56352;55.750;13.198;2023-04-30T00:10:30;10.18;;;2.70;;
69240;SDS011;56352;55.750;13.198;2023-04-30T00:12:57;8.73;;;2.40;;
69240;SDS011;56352;55.750;13.198;2023-04-30T00:15:23;7.45;;;2.20;;
69240;SDS011;56352;55.750;13.198;2023-04-30T00:17:50;5.82;;;2.35;;
69240;SDS011;56352;55.750;13.198;2023-04-30T00:20:16;4.55;;;2.20;;
69240;SDS011;56352;55.750;13.198;2023-04-30T00:22:43;3.88;;;2.10;;
69240;SDS011;56352;55.750;13.198;2023-04-30T00:25:09;8.40;;;2.63;;
69240;SDS011;56352;55.750;13.198;2023-04-30T00:27:36;5.40;;;1.98;;
69240;SDS011;56352;55.750;13.198;2023-04-30T00:32:32;5.63;;;2.03;;
69240;SDS011;56352;55.750;13.198;2023-04-30T00:34:59;6.80;;;1.80;;
69240;SDS011;56352;55.750;13.198;2023-04-30T00:37:25;6.80;;;2.22;;
69240;SDS011;56352;55.750;13.198;2023-04-30T00:39:52;10.07;;;2.22;;
69240;SDS011;56352;55.750;13.198;2023-04-30T00:42:19;7.28;;;2.10;;
69240;SDS011;56352;55.750;13.198;2023-04-30T00:44:45;9.40;;;2.28;;
69240;SDS011;56352;55.750;13.198;2023-04-30T00:47:12;6.43;;;2.47;;
69240;SDS011;56352;55.750;13.198;2023-04-30T00:49:38;7.53;;;2.55;;
69240;SDS011;56352;55.750;13.198;2023-04-30T00:52:05;8.70;;;2.08;;
69240;SDS011;56352;55.750;13.198;2023-04-30T00:54:32;9.02;;;2.47;;
69240;SDS011;56352;55.750;13.198;2023-04-30T00:56:58;5.25;;;2.00;;
69240;SDS011;56352;55.750;13.198;2023-04-30T00:59:25;7.75;;;2.28;;
69240;SDS011;56352;55.750;13.198;2023-04-30T01:01:52;6.60;;;2.72;;
69240;SDS011;56352;55.750;13.198;2023-04-30T01:04:19;11.90;;;2.15;;
69240;SDS011;56352;55.750;13.198;2023-04-30T01:06:45;10.93;;;2.47;;
69240;SDS011;56352;55.750;13.198;2023-04-30T01:09:12;11.50;;;2.45;;
69240;SDS011;56352;55.750;13.198;2023-04-30T01:14:27;8.53;;;2.33;;
69240;SDS011;56352;55.750;13.198;2023-04-30T01:16:59;9.90;;;2.28;;
69240;SDS011;56352;55.750;13.198;2023-04-30T01:21:59;4.85;;;2.30;;
69240;SDS011;56352;55.750;13.198;2023-04-30T01:24:42;6.63;;;1.92;;
69240;SDS011;56352;55.750;13.198;2023-04-30T01:29:41;4.30;;;2.22;;
69240;SDS011;56352;55.750;13.198;2023-04-30T01:32:11;11.23;;;2.30;;
69240;SDS011;56352;55.750;13.198;2023-04-30T01:34:37;9.85;;;2.25;;
69240;SDS011;56352;55.750;13.198;2023-04-30T01:37:06;7.03;;;2.35;;
69240;SDS011;56352;55.750;13.198;2023-04-30T01:39:55;9.85;;;2.90;;
69240;SDS011;56352;55.750;13.198;2023-04-30T01:42:49;6.43;;;2.25;;
69240;SDS011;56352;55.750;13.198;2023-04-30T01:45:18;8.50;;;2.03;;
69240;SDS011;56352;55.750;13.198;2023-04-30T01:47:52;9.45;;;2.20;;
69240;SDS011;56352;55.750;13.198;2023-04-30T01:53:01;11.52;;;2.83;;
69240;SDS011;56352;55.750;13.198;2023-04-30T01:57:58;9.73;;;2.67;;
69240;SDS011;56352;55.750;13.198;2023-04-30T02:00:25;5.97;;;2.28;;
69240;SDS011;56352;55.750;13.198;2023-04-30T02:02:53;10.27;;;2.47;;
69240;SDS011;56352;55.750;13.198;2023-04-30T02:05:19;6.32;;;1.90;;
69240;SDS011;56352;55.750;13.198;2023-04-30T02:07:47;7.88;;;2.10;;
69240;SDS011;56352;55.750;13.198;2023-04-30T02:10:15;9.40;;;2.88;;
69240;SDS011;56352;55.750;13.198;2023-04-30T02:12:42;11.57;;;2.63;;
69240;SDS011;56352;55.750;13.198;2023-04-30T02:15:09;4.97;;;2.40;;
69240;SDS011;56352;55.750;13.198;2023-04-30T02:17:35;12.10;;;3.00;;
69240;SDS011;56352;55.750;13.198;2023-04-30T02:20:02;10.50;;;2.70;;
69240;SDS011;56352;55.750;13.198;2023-04-30T02:22:30;7.80;;;2.55;;
69240;SDS011;56352;55.750;13.198;2023-04-30T02:24:56;6.47;;;2.60;;
69240;SDS011;56352;55.750;13.198;2023-04-30T02:27:23;9.77;;;2.08;;
69240;SDS011;56352;55.750;13.198;2023-04-30T02:29:51;13.43;;;2.92;;
69240;SDS011;56352;55.750;13.198;2023-04-30T02:32:18;7.78;;;2.53;;
69240;SDS011;56352;55.750;13.198;2023-04-30T02:34:45;8.77;;;2.95;;
69240;SDS011;56352;55.750;13.198;2023-04-30T02:37:11;7.93;;;2.50;;
69240;SDS011;56352;55.750;13.198;2023-04-30T02:39:38;6.55;;;2.67;;
69240;SDS011;56352;55.750;13.198;2023-04-30T02:42:04;7.88;;;2.70;;
69240;SDS011;56352;55.750;13.198;2023-04-30T02:44:32;8.90;;;2.92;;
69240;SDS011;56352;55.750;13.198;2023-04-30T02:46:59;12.20;;;2.47;;
69240;SDS011;56352;55.750;13.198;2023-04-30T02:49:25;5.43;;;1.98;;
69240;SDS011;56352;55.750;13.198;2023-04-30T02:51:52;12.23;;;3.78;;
69240;SDS011;56352;55.750;13.198;2023-04-30T02:54:19;7.55;;;2.45;;
69240;SDS011;56352;55.750;13.198;2023-04-30T02:56:47;7.43;;;1.98;;
69240;SDS011;56352;55.750;13.198;2023-04-30T02:59:13;9.77;;;2.50;;
69240;SDS011;56352;55.750;13.198;2023-04-30T03:01:40;8.05;;;2.30;;
69240;SDS011;56352;55.750;13.198;2023-04-30T03:04:07;9.48;;;2.70;;
69240;SDS011;56352;55.750;13.198;2023-04-30T03:06:33;6.63;;;2.60;;
69240;SDS011;56352;55.750;13.198;2023-04-30T03:09:00;11.98;;;2.67;;
69240;SDS011;56352;55.750;13.198;2023-04-30T03:11:26;8.65;;;2.65;;
69240;SDS011;56352;55.750;13.198;2023-04-30T03:13:53;9.27;;;2.75;;
69240;SDS011;56352;55.750;13.198;2023-04-30T03:16:20;8.38;;;2.53;;
69240;SDS011;56352;55.750;13.198;2023-04-30T03:18:47;8.88;;;2.15;;
69240;SDS011;56352;55.750;13.198;2023-04-30T03:21:14;7.60;;;2.78;;
69240;SDS011;56352;55.750;13.198;2023-04-30T03:23:40;6.18;;;2.10;;
69240;SDS011;56352;55.750;13.198;2023-04-30T03:26:09;4.63;;;2.25;;
69240;SDS011;56352;55.750;13.198;2023-04-30T03:28:36;7.97;;;2.45;;
69240;SDS011;56352;55.750;13.198;2023-04-30T03:31:02;4.38;;;2.00;;
69240;SDS011;56352;55.750;13.198;2023-04-30T03:33:31;12.20;;;2.38;;
69240;SDS011;56352;55.750;13.198;2023-04-30T03:35:58;8.90;;;2.67;;
69240;SDS011;56352;55.750;13.198;2023-04-30T03:38:25;7.82;;;2.33;;
69240;SDS011;56352;55.750;13.198;2023-04-30T03:40:52;9.27;;;2.45;;
69240;SDS011;56352;55.750;13.198;2023-04-30T03:43:18;10.40;;;2.70;;
69240;SDS011;56352;55.750;13.198;2023-04-30T03:45:45;7.47;;;2.67;;
69240;SDS011;56352;55.750;13.198;2023-04-30T03:48:11;8.00;;;2.28;;
69240;SDS011;56352;55.750;13.198;2023-04-30T03:50:38;8.88;;;2.53;;
69240;SDS011;56352;55.750;13.198;2023-04-30T03:53:05;8.25;;;3.00;;
69240;SDS011;56352;55.750;13.198;2023-04-30T03:55:32;10.70;;;2.60;;
69240;SDS011;56352;55.750;13.198;2023-04-30T03:57:59;7.28;;;2.05;;
69240;SDS011;56352;55.750;13.198;2023-04-30T04:00:26;10.20;;;2.63;;
69240;SDS011;56352;55.750;13.198;2023-04-30T04:02:52;6.75;;;2.40;;
69240;SDS011;56352;55.750;13.198;2023-04-30T04:05:19;6.13;;;2.20;;
69240;SDS011;56352;55.750;13.198;2023-04-30T04:07:46;5.93;;;2.50;;
69240;SDS011;56352;55.750;13.198;2023-04-30T04:10:12;8.27;;;2.45;;
69240;SDS011;56352;55.750;13.198;2023-04-30T04:12:39;8.77;;;2.72;;
69240;SDS011;56352;55.750;13.198;2023-04-30T04:15:05;7.60;;;2.72;;
69240;SDS011;56352;55.750;13.198;2023-04-30T04:17:32;8.07;;;2.35;;
69240;SDS011;56352;55.750;13.198;2023-04-30T04:20:03;7.28;;;2.85;;
69240;SDS011;56352;55.750;13.198;2023-04-30T04:22:31;6.28;;;2.25;;
69240;SDS011;56352;55.750;13.198;2023-04-30T04:24:58;8.52;;;2.50;;
69240;SDS011;56352;55.750;13.198;2023-04-30T04:27:24;6.25;;;2.13;;
69240;SDS011;56352;55.750;13.198;2023-04-30T04:29:51;4.05;;;1.85;;
69240;SDS011;56352;55.750;13.198;2023-04-30T04:32:18;5.00;;;2.55;;
69240;SDS011;56352;55.750;13.198;2023-04-30T04:34:44;6.03;;;2.13;;
69240;SDS011;56352;55.750;13.198;2023-04-30T04:37:11;9.25;;;2.17;;
69240;SDS011;56352;55.750;13.198;2023-04-30T04:39:37;8.98;;;2.38;;
69240;SDS011;56352;55.750;13.198;2023-04-30T04:42:04;6.63;;;2.22;;
69240;SDS011;56352;55.750;13.198;2023-04-30T04:44:30;6.93;;;2.10;;
69240;SDS011;56352;55.750;13.198;2023-04-30T04:46:57;7.05;;;2.28;;
69240;SDS011;56352;55.750;13.198;2023-04-30T04:49:24;7.60;;;2.35;;
69240;SDS011;56352;55.750;13.198;2023-04-30T04:51:50;9.23;;;2.25;;
69240;SDS011;56352;55.750;13.198;2023-04-30T04:54:17;6.20;;;2.42;;
69240;SDS011;56352;55.750;13.198;2023-04-30T04:56:43;4.22;;;2.10;;
69240;SDS011;56352;55.750;13.198;2023-04-30T04:59:10;5.03;;;1.80;;
69240;SDS011;56352;55.750;13.198;2023-04-30T05:01:37;4.97;;;2.05;;
69240;SDS011;56352;55.750;13.198;2023-04-30T05:04:03;4.60;;;2.15;;
69240;SDS011;56352;55.750;13.198;2023-04-30T05:06:30;6.00;;;2.22;;
69240;SDS011;56352;55.750;13.198;2023-04-30T05:08:57;6.57;;;2.20;;
69240;SDS011;56352;55.750;13.198;2023-04-30T05:11:24;6.95;;;2.22;;
69240;SDS011;56352;55.750;13.198;2023-04-30T05:13:50;6.78;;;2.08;;
69240;SDS011;56352;55.750;13.198;2023-04-30T05:16:17;5.78;;;2.20;;
69240;SDS011;56352;55.750;13.198;2023-04-30T05:18:44;5.32;;;2.20;;
69240;SDS011;56352;55.750;13.198;2023-04-30T05:21:10;8.30;;;2.42;;
69240;SDS011;56352;55.750;13.198;2023-04-30T05:23:36;5.65;;;2.28;;
69240;SDS011;56352;55.750;13.198;2023-04-30T05:26:03;4.50;;;2.00;;
69240;SDS011;56352;55.750;13.198;2023-04-30T05:28:30;5.72;;;2.42;;
69240;SDS011;56352;55.750;13.198;2023-04-30T05:30:57;7.70;;;2.03;;
69240;SDS011;56352;55.750;13.198;2023-04-30T05:33:24;5.57;;;2.38;;
69240;SDS011;56352;55.750;13.198;2023-04-30T05:35:51;6.15;;;2.63;;
69240;SDS011;56352;55.750;13.198;2023-04-30T05:38:18;7.15;;;2.40;;
69240;SDS011;56352;55.750;13.198;2023-04-30T05:40:44;7.65;;;2.10;;
69240;SDS011;56352;55.750;13.198;2023-04-30T05:43:11;8.07;;;1.90;;
69240;SDS011;56352;55.750;13.198;2023-04-30T05:45:37;5.07;;;2.15;;
69240;SDS011;56352;55.750;13.198;2023-04-30T05:48:04;7.15;;;2.10;;
69240;SDS011;56352;55.750;13.198;2023-04-30T05:50:31;4.93;;;2.08;;
69240;SDS011;56352;55.750;13.198;2023-04-30T05:52:57;6.28;;;2.28;;
69240;SDS011;56352;55.750;13.198;2023-04-30T05:55:24;6.50;;;2.40;;
69240;SDS011;56352;55.750;13.198;2023-04-30T05:57:50;7.22;;;1.98;;
69240;SDS011;56352;55.750;13.198;2023-04-30T06:00:17;7.82;;;2.20;;
69240;SDS011;56352;55.750;13.198;2023-04-30T06:02:43;5.93;;;1.92;;
69240;SDS011;56352;55.750;13.198;2023-04-30T06:05:10;5.35;;;1.73;;
69240;SDS011;56352;55.750;13.198;2023-04-30T06:07:41;7.03;;;1.88;;
69240;SDS011;56352;55.750;13.198;2023-04-30T06:10:07;9.65;;;2.42;;
69240;SDS011;56352;55.750;13.198;2023-04-30T06:12:34;10.48;;;3.45;;
69240;SDS011;56352;55.750;13.198;2023-04-30T06:15:01;4.45;;;2.00;;
69240;SDS011;56352;55.750;13.198;2023-04-30T06:17:28;4.90;;;2.35;;
69240;SDS011;56352;55.750;13.198;2023-04-30T06:19:54;5.43;;;2.00;;
69240;SDS011;56352;55.750;13.198;2023-04-30T06:22:21;4.30;;;1.75;;
69240;SDS011;56352;55.750;13.198;2023-04-30T06:24:48;6.30;;;2.10;;
69240;SDS011;56352;55.750;13.198;2023-04-30T06:27:14;3.88;;;1.88;;
69240;SDS011;56352;55.750;13.198;2023-04-30T06:29:42;4.07;;;1.85;;
69240;SDS011;56352;55.750;13.198;2023-04-30T06:32:09;4.47;;;2.20;;
69240;SDS011;56352;55.750;13.198;2023-04-30T06:34:37;4.15;;;1.80;;
69240;SDS011;56352;55.750;13.198;2023-04-30T06:37:03;6.07;;;1.55;;
69240;SDS011;56352;55.750;13.198;2023-04-30T06:39:30;7.03;;;2.55;;
69240;SDS011;56352;55.750;13.198;2023-04-30T06:41:56;5.05;;;1.98;;
69240;SDS011;56352;55.750;13.198;2023-04-30T06:44:23;4.00;;;1.60;;
69240;SDS011;56352;55.750;13.198;2023-04-30T06:46:50;7.03;;;1.83;;
69240;SDS011;56352;55.750;13.198;2023-04-30T06:49:16;4.60;;;2.00;;
69240;SDS011;56352;55.750;13.198;2023-04-30T06:51:43;6.88;;;1.60;;
69240;SDS011;56352;55.750;13.198;2023-04-30T06:54:09;3.58;;;1.45;;
69240;SDS011;56352;55.750;13.198;2023-04-30T06:56:36;4.25;;;1.92;;
69240;SDS011;56352;55.750;13.198;2023-04-30T06:59:03;4.13;;;1.65;;
69240;SDS011;56352;55.750;13.198;2023-04-30T07:01:29;3.88;;;1.50;;
69240;SDS011;56352;55.750;13.198;2023-04-30T07:03:56;2.90;;;1.30;;
69240;SDS011;56352;55.750;13.198;2023-04-30T07:06:25;5.70;;;1.58;;
69240;SDS011;56352;55.750;13.198;2023-04-30T07:08:52;6.00;;;2.33;;
69240;SDS011;56352;55.750;13.198;2023-04-30T07:11:18;3.70;;;1.20;;
69240;SDS011;56352;55.750;13.198;2023-04-30T07:13:45;4.43;;;1.50;;
69240;SDS011;56352;55.750;13.198;2023-04-30T07:16:11;3.85;;;1.45;;
69240;SDS011;56352;55.750;13.198;2023-04-30T07:18:38;6.45;;;1.60;;
69240;SDS011;56352;55.750;13.198;2023-04-30T07:21:06;4.78;;;1.73;;
69240;SDS011;56352;55.750;13.198;2023-04-30T07:23:33;3.05;;;1.48;;
69240;SDS011;56352;55.750;13.198;2023-04-30T07:26:00;3.42;;;1.88;;
69240;SDS011;56352;55.750;13.198;2023-04-30T07:28:26;5.78;;;1.55;;
69240;SDS011;56352;55.750;13.198;2023-04-30T07:31:07;3.38;;;1.80;;
69240;SDS011;56352;55.750;13.198;2023-04-30T07:33:33;3.58;;;1.55;;
69240;SDS011;56352;55.750;13.198;2023-04-30T07:36:00;3.58;;;2.10;;
69240;SDS011;56352;55.750;13.198;2023-04-30T07:38:28;5.03;;;1.80;;
69240;SDS011;56352;55.750;13.198;2023-04-30T07:40:55;5.25;;;1.80;;
69240;SDS011;56352;55.750;13.198;2023-04-30T07:43:21;4.00;;;1.90;;
69240;SDS011;56352;55.750;13.198;2023-04-30T07:45:48;4.10;;;1.65;;
69240;SDS011;56352;55.750;13.198;2023-04-30T07:48:15;6.72;;;2.20;;
69240;SDS011;56352;55.750;13.198;2023-04-30T07:50:42;5.30;;;1.95;;
69240;SDS011;56352;55.750;13.198;2023-04-30T07:53:08;4.15;;;1.90;;
69240;SDS011;56352;55.750;13.198;2023-04-30T07:55:35;6.55;;;2.25;;
69240;SDS011;56352;55.750;13.198;2023-04-30T07:58:03;4.30;;;1.77;;
69240;SDS011;56352;55.750;13.198;2023-04-30T08:00:29;3.25;;;1.60;;
69240;SDS011;56352;55.750;13.198;2023-04-30T08:02:57;3.25;;;1.65;;
69240;SDS011;56352;55.750;13.198;2023-04-30T08:05:24;3.17;;;1.80;;
69240;SDS011;56352;55.750;13.198;2023-04-30T08:07:50;4.72;;;2.10;;
69240;SDS011;56352;55.750;13.198;2023-04-30T08:10:18;5.43;;;2.10;;
69240;SDS011;56352;55.750;13.198;2023-04-30T08:12:45;4.20;;;1.88;;
69240;SDS011;56352;55.750;13.198;2023-04-30T08:15:12;3.70;;;1.55;;
69240;SDS011;56352;55.750;13.198;2023-04-30T08:17:38;7.97;;;1.50;;
69240;SDS011;56352;55.750;13.198;2023-04-30T08:20:05;6.03;;;2.05;;
69240;SDS011;56352;55.750;13.198;2023-04-30T08:22:32;3.83;;;1.73;;
69240;SDS011;56352;55.750;13.198;2023-04-30T08:24:59;2.55;;;1.60;;
69240;SDS011;56352;55.750;13.198;2023-04-30T08:27:27;4.63;;;1.58;;
69240;SDS011;56352;55.750;13.198;2023-04-30T08:29:53;4.78;;;1.55;;
69240;SDS011;56352;55.750;13.198;2023-04-30T08:32:21;2.80;;;1.42;;
69240;SDS011;56352;55.750;13.198;2023-04-30T08:34:47;5.32;;;1.63;;
69240;SDS011;56352;55.750;13.198;2023-04-30T08:37:14;2.90;;;1.50;;
69240;SDS011;56352;55.750;13.198;2023-04-30T08:39:41;7.13;;;1.50;;
69240;SDS011;56352;55.750;13.198;2023-04-30T08:42:12;4.07;;;1.60;;
69240;SDS011;56352;55.750;13.198;2023-04-30T08:44:39;2.95;;;1.73;;
69240;SDS011;56352;55.750;13.198;2023-04-30T08:47:09;2.85;;;1.48;;
69240;SDS011;56352;55.750;13.198;2023-04-30T08:49:39;3.17;;;1.48;;
69240;SDS011;56352;55.750;13.198;2023-04-30T08:52:06;2.70;;;1.20;;
69240;SDS011;56352;55.750;13.198;2023-04-30T08:54:33;3.60;;;1.73;;
69240;SDS011;56352;55.750;13.198;2023-04-30T08:57:00;3.50;;;1.73;;
69240;SDS011;56352;55.750;13.198;2023-04-30T08:59:27;3.08;;;1.77;;
69240;SDS011;56352;55.750;13.198;2023-04-30T09:01:54;2.85;;;1.73;;
69240;SDS011;56352;55.750;13.198;2023-04-30T09:04:21;4.78;;;1.67;;
69240;SDS011;56352;55.750;13.198;2023-04-30T09:06:47;3.60;;;1.70;;
69240;SDS011;56352;55.750;13.198;2023-04-30T09:09:14;3.92;;;1.58;;
69240;SDS011;56352;55.750;13.198;2023-04-30T09:11:41;5.40;;;1.90;;
69240;SDS011;56352;55.750;13.198;2023-04-30T09:14:08;5.57;;;1.70;;
69240;SDS011;56352;55.750;13.198;2023-04-30T09:16:45;4.22;;;1.55;;
69240;SDS011;56352;55.750;13.198;2023-04-30T09:19:25;2.72;;;1.35;;
69240;SDS011;56352;55.750;13.198;2023-04-30T09:21:52;4.60;;;1.60;;
69240;SDS011;56352;55.750;13.198;2023-04-30T09:24:19;2.47;;;1.35;;
69240;SDS011;56352;55.750;13.198;2023-04-30T09:26:45;2.83;;;1.45;;
69240;SDS011;56352;55.750;13.198;2023-04-30T09:29:12;4.35;;;1.60;;
69240;SDS011;56352;55.750;13.198;2023-04-30T09:31:43;5.00;;;1.52;;
69240;SDS011;56352;55.750;13.198;2023-04-30T09:34:11;6.32;;;1.90;;
69240;SDS011;56352;55.750;13.198;2023-04-30T09:36:59;3.97;;;1.80;;
69240;SDS011;56352;55.750;13.198;2023-04-30T09:39:24;3.35;;;1.83;;
69240;SDS011;56352;55.750;13.198;2023-04-30T09:41:51;2.95;;;1.60;;
69240;SDS011;56352;55.750;13.198;2023-04-30T09:44:25;5.07;;;1.55;;
69240;SDS011;56352;55.750;13.198;2023-04-30T09:46:53;2.13;;;1.35;;
69240;SDS011;56352;55.750;13.198;2023-04-30T09:49:21;5.80;;;2.17;;
69240;SDS011;56352;55.750;13.198;2023-04-30T09:54:23;2.90;;;1.40;;
69240;SDS011;56352;55.750;13.198;2023-04-30T09:56:50;3.90;;;1.48;;
69240;SDS011;56352;55.750;13.198;2023-04-30T09:59:19;5.93;;;1.50;;
69240;SDS011;56352;55.750;13.198;2023-04-30T10:01:47;3.85;;;1.83;;
69240;SDS011;56352;55.750;13.198;2023-04-30T10:04:14;5.53;;;1.50;;
69240;SDS011;56352;55.750;13.198;2023-04-30T10:06:41;3.70;;;1.60;;
69240;SDS011;56352;55.750;13.198;2023-04-30T10:09:08;4.32;;;1.27;;
69240;SDS011;56352;55.750;13.198;2023-04-30T10:11:37;2.88;;;1.50;;
69240;SDS011;56352;55.750;13.198;2023-04-30T10:14:07;5.07;;;1.92;;
69240;SDS011;56352;55.750;13.198;2023-04-30T10:19:10;2.08;;;1.25;;
69240;SDS011;56352;55.750;13.198;2023-04-30T10:24:05;3.80;;;1.52;;
69240;SDS011;56352;55.750;13.198;2023-04-30T10:26:31;4.07;;;1.58;;
69240;SDS011;56352;55.750;13.198;2023-04-30T10:28:58;3.78;;;1.50;;
69240;SDS011;56352;55.750;13.198;2023-04-30T10:31:26;2.50;;;1.57;;
69240;SDS011;56352;55.750;13.198;2023-04-30T10:36:23;2.70;;;1.40;;
69240;SDS011;56352;55.750;13.198;2023-04-30T10:38:52;5.00;;;1.50;;
69240;SDS011;56352;55.750;13.198;2023-04-30T10:41:19;3.45;;;1.35;;
69240;SDS011;56352;55.750;13.198;2023-04-30T10:43:46;3.05;;;1.52;;
69240;SDS011;56352;55.750;13.198;2023-04-30T10:46:21;4.85;;;1.50;;
69240;SDS011;56352;55.750;13.198;2023-04-30T10:48:48;3.03;;;1.77;;
69240;SDS011;56352;55.750;13.198;2023-04-30T10:51:15;3.40;;;1.67;;
69240;SDS011;56352;55.750;13.198;2023-04-30T10:53:41;3.50;;;1.40;;
69240;SDS011;56352;55.750;13.198;2023-04-30T10:56:09;5.30;;;2.05;;
69240;SDS011;56352;55.750;13.198;2023-04-30T10:58:36;6.28;;;1.67;;
69240;SDS011;56352;55.750;13.198;2023-04-30T11:01:07;4.65;;;1.48;;
69240;SDS011;56352;55.750;13.198;2023-04-30T11:03:36;3.00;;;1.85;;
69240;SDS011;56352;55.750;13.198;2023-04-30T11:06:07;4.50;;;2.08;;
69240;SDS011;56352;55.750;13.198;2023-04-30T11:08:37;4.43;;;1.83;;
69240;SDS011;56352;55.750;13.198;2023-04-30T11:11:04;5.25;;;2.08;;
69240;SDS011;56352;55.750;13.198;2023-04-30T11:13:38;3.60;;;1.25;;
69240;SDS011;56352;55.750;13.198;2023-04-30T11:16:05;4.32;;;1.50;;
69240;SDS011;56352;55.750;13.198;2023-04-30T11:18:32;4.75;;;1.45;;
69240;SDS011;56352;55.750;13.198;2023-04-30T11:20:58;4.05;;;1.15;;
69240;SDS011;56352;55.750;13.198;2023-04-30T11:23:27;3.10;;;1.45;;
69240;SDS011;56352;55.750;13.198;2023-04-30T11:26:07;5.18;;;1.58;;
69240;SDS011;56352;55.750;13.198;2023-04-30T11:28:36;4.32;;;1.50;;
69240;SDS011;56352;55.750;13.198;2023-04-30T11:31:03;3.80;;;1.20;;
69240;SDS011;56352;55.750;13.198;2023-04-30T11:33:30;5.60;;;1.52;;
69240;SDS011;56352;55.750;13.198;2023-04-30T11:35:57;3.50;;;1.40;;
69240;SDS011;56352;55.750;13.198;2023-04-30T11:38:29;4.05;;;1.38;;
69240;SDS011;56352;55.750;13.198;2023-04-30T11:40:56;3.20;;;1.50;;
69240;SDS011;56352;55.750;13.198;2023-04-30T11:43:24;4.00;;;1.43;;
69240;SDS011;56352;55.750;13.198;2023-04-30T11:46:05;3.17;;;1.55;;
69240;SDS011;56352;55.750;13.198;2023-04-30T11:48:36;3.50;;;1.38;;
69240;SDS011;56352;55.750;13.198;2023-04-30T11:54:00;3.88;;;1.45;;
69240;SDS011;56352;55.750;13.198;2023-04-30T11:56:26;5.10;;;1.52;;
69240;SDS011;56352;55.750;13.198;2023-04-30T11:58:53;6.15;;;1.48;;
69240;SDS011;56352;55.750;13.198;2023-04-30T12:01:21;2.88;;;1.45;;
69240;SDS011;56352;55.750;13.198;2023-04-30T12:03:53;3.38;;;1.67;;
69240;SDS011;56352;55.750;13.198;2023-04-30T12:06:21;3.20;;;1.27;;
69240;SDS011;56352;55.750;13.198;2023-04-30T12:08:48;3.13;;;1.38;;
69240;SDS011;56352;55.750;13.198;2023-04-30T12:11:28;3.88;;;1.25;;
69240;SDS011;56352;55.750;13.198;2023-04-30T12:14:03;3.30;;;1.42;;
69240;SDS011;56352;55.750;13.198;2023-04-30T12:16:40;3.40;;;1.52;;
69240;SDS011;56352;55.750;13.198;2023-04-30T12:19:10;5.28;;;1.30;;
69240;SDS011;56352;55.750;13.198;2023-04-30T12:21:37;3.95;;;1.40;;
69240;SDS011;56352;55.750;13.198;2023-04-30T12:24:04;4.25;;;1.60;;
69240;SDS011;56352;55.750;13.198;2023-04-30T12:26:34;3.22;;;1.38;;
69240;SDS011;56352;55.750;13.198;2023-04-30T12:29:02;4.60;;;1.98;;
69240;SDS011;56352;55.750;13.198;2023-04-30T12:31:32;3.53;;;1.50;;
69240;SDS011;56352;55.750;13.198;2023-04-30T12:34:02;4.30;;;1.20;;
69240;SDS011;56352;55.750;13.198;2023-04-30T12:36:33;3.33;;;1.58;;
69240;SDS011;56352;55.750;13.198;2023-04-30T12:39:05;4.47;;;1.40;;
69240;SDS011;56352;55.750;13.198;2023-04-30T12:41:35;4.88;;;1.50;;
69240;SDS011;56352;55.750;13.198;2023-04-30T12:46:40;3.55;;;1.60;;
69240;SDS011;56352;55.750;13.198;2023-04-30T12:49:08;3.83;;;1.67;;
69240;SDS011;56352;55.750;13.198;2023-04-30T12:54:05;6.18;;;1.65;;
69240;SDS011;56352;55.750;13.198;2023-04-30T12:56:32;5.13;;;1.80;;
69240;SDS011;56352;55.750;13.198;2023-04-30T12:58:58;5.13;;;1.92;;
69240;SDS011;56352;55.750;13.198;2023-04-30T13:01:24;4.38;;;1.70;;
69240;SDS011;56352;55.750;13.198;2023-04-30T13:03:51;5.38;;;1.70;;
69240;SDS011;56352;55.750;13.198;2023-04-30T13:06:22;5.57;;;1.88;;
69240;SDS011;56352;55.750;13.198;2023-04-30T13:08:49;5.00;;;1.40;;
69240;SDS011;56352;55.750;13.198;2023-04-30T13:11:24;3.20;;;1.55;;
69240;SDS011;56352;55.750;13.198;2023-04-30T13:13:52;4.43;;;1.50;;
69240;SDS011;56352;55.750;13.198;2023-04-30T13:16:20;3.35;;;1.70;;
69240;SDS011;56352;55.750;13.198;2023-04-30T13:18:48;3.75;;;1.50;;
69240;SDS011;56352;55.750;13.198;2023-04-30T13:21:14;5.72;;;1.88;;
69240;SDS011;56352;55.750;13.198;2023-04-30T13:23:41;5.80;;;1.70;;
69240;SDS011;56352;55.750;13.198;2023-04-30T13:26:19;4.63;;;2.08;;
69240;SDS011;56352;55.750;13.198;2023-04-30T13:28:46;4.53;;;1.40;;
69240;SDS011;56352;55.750;13.198;2023-04-30T13:31:13;4.80;;;1.85;;
69240;SDS011;56352;55.750;13.198;2023-04-30T13:33:43;3.90;;;1.63;;
69240;SDS011;56352;55.750;13.198;2023-04-30T13:36:09;4.93;;;1.73;;
69240;SDS011;56352;55.750;13.198;2023-04-30T13:38:36;3.80;;;1.45;;
69240;SDS011;56352;55.750;13.198;2023-04-30T13:41:04;3.72;;;1.55;;
69240;SDS011;56352;55.750;13.198;2023-04-30T13:43:31;6.93;;;1.70;;
69240;SDS011;56352;55.750;13.198;2023-04-30T13:45:58;4.30;;;1.70;;
69240;SDS011;56352;55.750;13.198;2023-04-30T13:48:25;3.97;;;1.70;;
69240;SDS011;56352;55.750;13.198;2023-04-30T13:50:52;3.28;;;1.58;;
69240;SDS011;56352;55.750;13.198;2023-04-30T13:53:19;4.05;;;1.58;;
69240;SDS011;56352;55.750;13.198;2023-04-30T13:55:45;5.55;;;2.10;;
69240;SDS011;56352;55.750;13.198;2023-04-30T13:58:12;3.97;;;2.05;;
69240;SDS011;56352;55.750;13.198;2023-04-30T14:00:39;5.18;;;1.75;;
69240;SDS011;56352;55.750;13.198;2023-04-30T14:03:06;4.20;;;1.48;;
69240;SDS011;56352;55.750;13.198;2023-04-30T14:05:33;4.13;;;1.63;;
69240;SDS011;56352;55.750;13.198;2023-04-30T14:08:01;4.15;;;1.88;;
69240;SDS011;56352;55.750;13.198;2023-04-30T14:10:27;3.70;;;1.40;;
69240;SDS011;56352;55.750;13.198;2023-04-30T14:12:54;3.00;;;1.30;;
69240;SDS011;56352;55.750;13.198;2023-04-30T14:15:21;5.38;;;1.38;;
69240;SDS011;56352;55.750;13.198;2023-04-30T14:17:47;5.78;;;2.17;;
69240;SDS011;56352;55.750;13.198;2023-04-30T14:20:14;3.80;;;1.80;;
69240;SDS011;56352;55.750;13.198;2023-04-30T14:22:41;3.65;;;1.83;;
69240;SDS011;56352;55.750;13.198;2023-04-30T14:25:08;3.88;;;1.75;;
69240;SDS011;56352;55.750;13.198;2023-04-30T14:27:36;4.30;;;2.05;;
69240;SDS011;56352;55.750;13.198;2023-04-30T14:30:03;5.93;;;1.85;;
69240;SDS011;56352;55.750;13.198;2023-04-30T14:32:30;3.30;;;1.73;;
69240;SDS011;56352;55.750;13.198;2023-04-30T14:34:57;7.05;;;1.90;;
69240;SDS011;56352;55.750;13.198;2023-04-30T14:37:23;3.17;;;1.33;;
69240;SDS011;56352;55.750;13.198;2023-04-30T14:39:51;2.43;;;1.67;;
69240;SDS011;56352;55.750;13.198;2023-04-30T14:42:19;5.53;;;1.70;;
69240;SDS011;56352;55.750;13.198;2023-04-30T14:44:45;4.70;;;1.67;;
69240;SDS011;56352;55.750;13.198;2023-04-30T14:47:12;3.92;;;1.63;;
69240;SDS011;56352;55.750;13.198;2023-04-30T14:49:39;4.38;;;2.03;;
69240;SDS011;56352;55.750;13.198;2023-04-30T14:52:06;5.25;;;1.63;;
69240;SDS011;56352;55.750;13.198;2023-04-30T14:54:37;3.58;;;1.60;;
69240;SDS011;56352;55.750;13.198;2023-04-30T14:57:03;3.75;;;1.30;;
69240;SDS011;56352;55.750;13.198;2023-04-30T14:59:30;3.88;;;1.48;;
69240;SDS011;56352;55.750;13.198;2023-04-30T15:04:25;4.28;;;1.67;;
69240;SDS011;56352;55.750;13.198;2023-04-30T15:06:52;3.15;;;1.75;;
69240;SDS011;56352;55.750;13.198;2023-04-30T15:09:19;4.53;;;1.77;;
69240;SDS011;56352;55.750;13.198;2023-04-30T15:11:46;4.53;;;1.70;;